Historyczne dane pomiarowe

Dodano dane terminowe – wersja testowa.

Dane z okresu 1951-2019

Wersja bazy: 1.34 [2019-03-16, lista zmian], aktualizacja planowana na 2019-04-15

Dane meteo z obszaru Polski uzyskane na podstawie danych udostępnionych przez Instytut Meteorologii i Gospodarki Wodnej – Państwowy Instytut Badawczy.

 

Wybierz Datę:    

       

TemperaturaWilgotnośćWiatrCiśnienieOpadyŚniegCzas trwania zjawisk
 Stacja t tx tn tng RH VA  wxwx mslp ppp RRR   cm mm wxwxwxwxwxwxwx
1965-07-16 16.0 19.8 14.3- 93.5- 8.0 5.0---- 0.0------------
1965-07-17 13.8 15.5 12.9- 90.3- 7.0 5.7---- 0.0------------
1965-07-18 15.2 18.7 11.4- 71.8- 1.7 6.3---- 0.0------------
1965-07-19 17.1 21.9 9.2- 69.0- 1.3 2.7---- 0.0------------
1965-07-20 18.5 23.4 11.6- 68.3- 0.0 1.7---- 0.0------------
1965-07-21 19.2 23.7 11.8- 67.3- 7.0 2.0---- 2.9------------
1965-07-22 17.1 21.7 15.3- 87.8- 6.3 2.0---- 1.6------------
1965-07-23 15.9 21.8 12.9- 87.5- 5.3 1.0---- 7.0------------
1965-07-24 14.9 20.3 11.3- 82.3- 7.7 4.3---- 4.4------------
1965-07-25 14.9 20.8 10.4- 79.0- 4.7 3.7---- 3.5------------
1965-07-26 13.8 17.3 10.4- 84.8- 8.0 4.0---- 4.6------------
1965-07-27 12.0 14.9 10.3- 82.3- 8.0 4.3---- 1.8------------
1965-07-28 12.5 15.7 8.9- 85.3- 7.7 5.7---- 1.3------------
1965-07-29 13.5 15.9 11.3- 90.8- 8.0 4.0---- 4.8------------
1965-07-30 14.3 18.2 11.3- 86.3- 7.3 7.0---- 11.0------------
1965-07-31 12.2 16.0 10.6- 70.0- 5.7 4.7---- 0.0------------
1965-08-01 12.5 17.0 6.8- 72.3- 4.3 2.7---- 0.0------------
1965-08-02 11.9 18.0 5.8- 80.3- 3.7 1.0---- 4.4------------
1965-08-03 13.7 19.4 7.2- 81.8- 4.0 1.3---- 0.0------------
1965-08-04 13.3 18.8 10.3- 84.3- 6.0 1.7---- 0.2------------
1965-08-05 13.9 18.8 9.3- 84.5- 4.7 1.7---- 0.0------------
1965-08-06 18.5 26.6 10.6- 82.8- 5.0 3.0---- 22.4------------
1965-08-07 17.6 22.0 14.1- 93.8- 8.0 1.3---- 0.0------------
1965-08-08 14.4 17.2 12.9- 91.5- 8.0 1.0---- 7.6------------
1965-08-09 11.8 17.9 9.4- 88.0- 5.3 1.0---- 0.0------------
1965-08-10 11.5 17.0 6.3- 83.0- 3.3 1.3---- 0.0------------
1965-08-11 12.6 17.3 7.3- 86.3- 5.3 2.0---- 0.0------------
1965-08-12 10.8 16.3 8.8- 90.3- 4.7 2.0---- 2.9------------
1965-08-13 11.7 16.4 6.3- 83.5- 4.3 2.0---- 0.7------------
1965-08-14 11.3 13.7 8.4- 92.0- 8.0 2.0---- 1.4------------
226.0 ms

 

Źródłem pochodzenia danych jest Instytut Meteorologii i Gospodarki Wodnej – Państwowy Instytut Badawczy. Dane Instytutu Meteorologii i Gospodarki Wodnej – Państwowego Instytutu Badawczego zostały przetworzone.

Dane źródłowe można odnaleźć na stronie https://dane.imgw.pl